sensor_id;sensor_type;location;lat;lon;timestamp;temperature;humidity
10316;DHT22;5203;48.976;8.306;2022-08-19T00:02:04;23.90;79.60
10316;DHT22;5203;48.976;8.306;2022-08-19T00:04:33;23.90;79.30
10316;DHT22;5203;48.976;8.306;2022-08-19T00:07:04;23.90;79.70
10316;DHT22;5203;48.976;8.306;2022-08-19T00:09:30;23.90;79.50
10316;DHT22;5203;48.976;8.306;2022-08-19T00:11:57;23.80;80.00
10316;DHT22;5203;48.976;8.306;2022-08-19T00:14:24;23.80;79.60
10316;DHT22;5203;48.976;8.306;2022-08-19T00:16:51;23.80;79.60
10316;DHT22;5203;48.976;8.306;2022-08-19T00:19:20;23.80;80.40
10316;DHT22;5203;48.976;8.306;2022-08-19T00:21:46;23.80;79.60
10316;DHT22;5203;48.976;8.306;2022-08-19T00:24:13;23.90;79.40
10316;DHT22;5203;48.976;8.306;2022-08-19T00:26:41;23.90;79.20
10316;DHT22;5203;48.976;8.306;2022-08-19T00:29:09;24.00;78.40
10316;DHT22;5203;48.976;8.306;2022-08-19T00:31:35;24.00;78.90
10316;DHT22;5203;48.976;8.306;2022-08-19T00:34:02;24.00;79.00
10316;DHT22;5203;48.976;8.306;2022-08-19T00:36:28;23.90;79.70
10316;DHT22;5203;48.976;8.306;2022-08-19T00:38:54;23.80;81.00
10316;DHT22;5203;48.976;8.306;2022-08-19T00:41:22;23.70;80.60
10316;DHT22;5203;48.976;8.306;2022-08-19T00:44:16;23.80;80.50
10316;DHT22;5203;48.976;8.306;2022-08-19T00:46:46;23.80;80.80
10316;DHT22;5203;48.976;8.306;2022-08-19T00:49:26;23.80;82.20
10316;DHT22;5203;48.976;8.306;2022-08-19T00:52:04;23.80;82.20
10316;DHT22;5203;48.976;8.306;2022-08-19T00:54:31;23.70;83.10
10316;DHT22;5203;48.976;8.306;2022-08-19T00:56:58;23.60;84.40
10316;DHT22;5203;48.976;8.306;2022-08-19T00:59:25;23.50;85.50
10316;DHT22;5203;48.976;8.306;2022-08-19T01:01:51;23.40;86.40
10316;DHT22;5203;48.976;8.306;2022-08-19T01:04:17;23.30;87.30
10316;DHT22;5203;48.976;8.306;2022-08-19T01:06:43;23.30;86.90
10316;DHT22;5203;48.976;8.306;2022-08-19T01:09:09;23.30;86.50
10316;DHT22;5203;48.976;8.306;2022-08-19T01:11:38;23.20;88.20
10316;DHT22;5203;48.976;8.306;2022-08-19T01:14:05;23.10;88.30
10316;DHT22;5203;48.976;8.306;2022-08-19T01:16:32;23.30;87.70
10316;DHT22;5203;48.976;8.306;2022-08-19T01:18:58;23.30;88.60
10316;DHT22;5203;48.976;8.306;2022-08-19T01:21:32;23.30;89.40
10316;DHT22;5203;48.976;8.306;2022-08-19T01:23:59;23.40;88.60
10316;DHT22;5203;48.976;8.306;2022-08-19T01:26:26;23.40;88.80
10316;DHT22;5203;48.976;8.306;2022-08-19T01:28:54;23.30;90.20
10316;DHT22;5203;48.976;8.306;2022-08-19T01:31:24;23.30;90.90
10316;DHT22;5203;48.976;8.306;2022-08-19T01:33:51;23.20;90.70
10316;DHT22;5203;48.976;8.306;2022-08-19T01:36:33;23.10;91.60
10316;DHT22;5203;48.976;8.306;2022-08-19T01:39:02;23.10;91.60
10316;DHT22;5203;48.976;8.306;2022-08-19T01:41:28;23.10;92.60
10316;DHT22;5203;48.976;8.306;2022-08-19T01:43:54;23.00;93.00
10316;DHT22;5203;48.976;8.306;2022-08-19T01:46:21;22.90;93.80
10316;DHT22;5203;48.976;8.306;2022-08-19T01:48:48;22.80;93.30
10316;DHT22;5203;48.976;8.306;2022-08-19T01:51:14;22.80;94.10
10316;DHT22;5203;48.976;8.306;2022-08-19T01:53:40;22.90;93.90
10316;DHT22;5203;48.976;8.306;2022-08-19T01:56:06;22.90;93.80
10316;DHT22;5203;48.976;8.306;2022-08-19T01:58:36;23.00;93.80
10316;DHT22;5203;48.976;8.306;2022-08-19T02:01:04;23.00;93.50
10316;DHT22;5203;48.976;8.306;2022-08-19T02:03:30;23.10;92.80
10316;DHT22;5203;48.976;8.306;2022-08-19T02:06:00;23.10;92.20
10316;DHT22;5203;48.976;8.306;2022-08-19T02:08:28;23.10;92.00
10316;DHT22;5203;48.976;8.306;2022-08-19T02:10:54;23.20;91.70
10316;DHT22;5203;48.976;8.306;2022-08-19T02:13:19;23.20;91.60
10316;DHT22;5203;48.976;8.306;2022-08-19T02:15:45;23.20;91.80
10316;DHT22;5203;48.976;8.306;2022-08-19T02:18:11;23.10;92.10
10316;DHT22;5203;48.976;8.306;2022-08-19T02:20:38;23.20;91.30
10316;DHT22;5203;48.976;8.306;2022-08-19T02:23:05;23.20;91.00
10316;DHT22;5203;48.976;8.306;2022-08-19T02:25:31;23.20;91.40
10316;DHT22;5203;48.976;8.306;2022-08-19T02:27:57;23.10;92.20
10316;DHT22;5203;48.976;8.306;2022-08-19T02:30:22;23.10;91.60
10316;DHT22;5203;48.976;8.306;2022-08-19T02:32:50;23.10;92.30
10316;DHT22;5203;48.976;8.306;2022-08-19T02:35:17;23.10;92.30
10316;DHT22;5203;48.976;8.306;2022-08-19T02:37:43;23.10;92.30
10316;DHT22;5203;48.976;8.306;2022-08-19T02:40:29;23.10;92.40
10316;DHT22;5203;48.976;8.306;2022-08-19T02:42:55;23.10;92.10
10316;DHT22;5203;48.976;8.306;2022-08-19T02:45:21;23.10;91.90
10316;DHT22;5203;48.976;8.306;2022-08-19T02:47:47;23.10;92.00
10316;DHT22;5203;48.976;8.306;2022-08-19T02:50:12;23.10;92.30
10316;DHT22;5203;48.976;8.306;2022-08-19T02:52:39;23.10;92.00
10316;DHT22;5203;48.976;8.306;2022-08-19T02:55:05;23.20;91.40
10316;DHT22;5203;48.976;8.306;2022-08-19T02:57:31;23.10;91.40
10316;DHT22;5203;48.976;8.306;2022-08-19T02:59:57;23.10;91.40
10316;DHT22;5203;48.976;8.306;2022-08-19T03:02:23;23.20;91.00
10316;DHT22;5203;48.976;8.306;2022-08-19T03:04:49;23.20;90.70
10316;DHT22;5203;48.976;8.306;2022-08-19T03:07:17;23.20;90.40
10316;DHT22;5203;48.976;8.306;2022-08-19T03:09:44;23.10;92.40
10316;DHT22;5203;48.976;8.306;2022-08-19T03:12:10;23.00;93.60
10316;DHT22;5203;48.976;8.306;2022-08-19T03:14:36;22.70;95.10
10316;DHT22;5203;48.976;8.306;2022-08-19T03:17:03;22.60;96.30
10316;DHT22;5203;48.976;8.306;2022-08-19T03:19:30;22.50;96.90
10316;DHT22;5203;48.976;8.306;2022-08-19T03:21:57;22.50;97.20
10316;DHT22;5203;48.976;8.306;2022-08-19T03:24:23;22.30;98.60
10316;DHT22;5203;48.976;8.306;2022-08-19T03:26:53;22.10;99.70
10316;DHT22;5203;48.976;8.306;2022-08-19T03:29:23;22.00;99.90
10316;DHT22;5203;48.976;8.306;2022-08-19T03:31:49;22.00;99.80
10316;DHT22;5203;48.976;8.306;2022-08-19T03:34:20;22.00;99.90
10316;DHT22;5203;48.976;8.306;2022-08-19T03:36:47;22.10;99.60
10316;DHT22;5203;48.976;8.306;2022-08-19T03:39:13;22.20;98.50
10316;DHT22;5203;48.976;8.306;2022-08-19T03:41:42;22.30;98.60
10316;DHT22;5203;48.976;8.306;2022-08-19T03:44:08;22.40;97.60
10316;DHT22;5203;48.976;8.306;2022-08-19T03:46:35;22.40;97.90
10316;DHT22;5203;48.976;8.306;2022-08-19T03:49:03;22.50;97.40
10316;DHT22;5203;48.976;8.306;2022-08-19T03:51:37;22.50;96.70
10316;DHT22;5203;48.976;8.306;2022-08-19T03:54:07;22.60;96.40
10316;DHT22;5203;48.976;8.306;2022-08-19T03:56:37;22.70;96.50
10316;DHT22;5203;48.976;8.306;2022-08-19T03:59:05;22.70;95.70
10316;DHT22;5203;48.976;8.306;2022-08-19T04:01:31;22.80;95.80
10316;DHT22;5203;48.976;8.306;2022-08-19T04:03:58;22.70;95.50
10316;DHT22;5203;48.976;8.306;2022-08-19T04:06:27;22.70;96.00
10316;DHT22;5203;48.976;8.306;2022-08-19T04:08:54;22.70;95.50
10316;DHT22;5203;48.976;8.306;2022-08-19T04:11:23;22.70;95.50
10316;DHT22;5203;48.976;8.306;2022-08-19T04:13:50;22.80;95.30
10316;DHT22;5203;48.976;8.306;2022-08-19T04:16:20;22.70;95.50
10316;DHT22;5203;48.976;8.306;2022-08-19T04:18:47;22.60;96.20
10316;DHT22;5203;48.976;8.306;2022-08-19T04:21:22;22.50;96.50
10316;DHT22;5203;48.976;8.306;2022-08-19T04:23:48;22.40;96.70
10316;DHT22;5203;48.976;8.306;2022-08-19T04:26:20;22.50;96.60
10316;DHT22;5203;48.976;8.306;2022-08-19T04:28:47;22.40;96.80
10316;DHT22;5203;48.976;8.306;2022-08-19T04:31:19;22.40;96.50
10316;DHT22;5203;48.976;8.306;2022-08-19T04:33:45;22.50;96.40
10316;DHT22;5203;48.976;8.306;2022-08-19T04:36:22;22.50;96.10
10316;DHT22;5203;48.976;8.306;2022-08-19T04:38:49;22.60;95.90
10316;DHT22;5203;48.976;8.306;2022-08-19T04:41:15;22.50;95.80
10316;DHT22;5203;48.976;8.306;2022-08-19T04:44:00;22.60;95.50
10316;DHT22;5203;48.976;8.306;2022-08-19T04:46:27;22.60;94.50
10316;DHT22;5203;48.976;8.306;2022-08-19T04:48:55;22.70;94.70
10316;DHT22;5203;48.976;8.306;2022-08-19T04:51:23;22.70;94.20
10316;DHT22;5203;48.976;8.306;2022-08-19T04:53:48;22.80;94.00
10316;DHT22;5203;48.976;8.306;2022-08-19T04:56:16;22.80;93.60
10316;DHT22;5203;48.976;8.306;2022-08-19T04:58:43;22.80;93.80
10316;DHT22;5203;48.976;8.306;2022-08-19T05:01:17;22.80;93.90
10316;DHT22;5203;48.976;8.306;2022-08-19T05:03:43;22.70;94.90
10316;DHT22;5203;48.976;8.306;2022-08-19T05:06:12;22.50;94.70
10316;DHT22;5203;48.976;8.306;2022-08-19T05:08:40;22.50;95.50
10316;DHT22;5203;48.976;8.306;2022-08-19T05:11:14;22.60;94.40
10316;DHT22;5203;48.976;8.306;2022-08-19T05:13:41;22.80;93.50
10316;DHT22;5203;48.976;8.306;2022-08-19T05:16:08;22.80;93.20
10316;DHT22;5203;48.976;8.306;2022-08-19T05:18:34;22.80;93.40
10316;DHT22;5203;48.976;8.306;2022-08-19T05:21:19;22.80;93.30
10316;DHT22;5203;48.976;8.306;2022-08-19T05:24:05;22.90;93.10
10316;DHT22;5203;48.976;8.306;2022-08-19T05:26:38;22.90;93.10
10316;DHT22;5203;48.976;8.306;2022-08-19T05:29:05;22.90;92.50
10316;DHT22;5203;48.976;8.306;2022-08-19T05:31:32;22.70;93.20
10316;DHT22;5203;48.976;8.306;2022-08-19T05:33:58;22.60;93.40
10316;DHT22;5203;48.976;8.306;2022-08-19T05:36:26;22.50;93.10
10316;DHT22;5203;48.976;8.306;2022-08-19T05:38:52;22.50;93.30
10316;DHT22;5203;48.976;8.306;2022-08-19T05:41:19;22.60;93.00
10316;DHT22;5203;48.976;8.306;2022-08-19T05:43:45;22.40;93.90
10316;DHT22;5203;48.976;8.306;2022-08-19T05:46:19;22.40;93.00
10316;DHT22;5203;48.976;8.306;2022-08-19T05:48:45;22.50;92.70
10316;DHT22;5203;48.976;8.306;2022-08-19T05:51:12;22.50;93.00
10316;DHT22;5203;48.976;8.306;2022-08-19T05:53:38;22.30;93.30
10316;DHT22;5203;48.976;8.306;2022-08-19T05:56:08;22.20;94.20
10316;DHT22;5203;48.976;8.306;2022-08-19T05:58:35;22.30;93.20
10316;DHT22;5203;48.976;8.306;2022-08-19T06:01:02;22.30;93.50
10316;DHT22;5203;48.976;8.306;2022-08-19T06:03:34;22.40;92.70
10316;DHT22;5203;48.976;8.306;2022-08-19T06:06:00;22.40;91.70
10316;DHT22;5203;48.976;8.306;2022-08-19T06:08:28;22.40;91.90
10316;DHT22;5203;48.976;8.306;2022-08-19T06:10:54;22.50;91.30
10316;DHT22;5203;48.976;8.306;2022-08-19T06:13:19;22.60;91.00
10316;DHT22;5203;48.976;8.306;2022-08-19T06:15:46;22.60;90.20
10316;DHT22;5203;48.976;8.306;2022-08-19T06:18:13;22.60;90.90
10316;DHT22;5203;48.976;8.306;2022-08-19T06:20:39;22.70;90.20
10316;DHT22;5203;48.976;8.306;2022-08-19T06:23:04;22.70;89.60
10316;DHT22;5203;48.976;8.306;2022-08-19T06:25:30;22.70;89.20
10316;DHT22;5203;48.976;8.306;2022-08-19T06:27:56;22.80;88.70
10316;DHT22;5203;48.976;8.306;2022-08-19T06:30:22;22.80;88.90
10316;DHT22;5203;48.976;8.306;2022-08-19T06:32:47;22.90;88.80
10316;DHT22;5203;48.976;8.306;2022-08-19T06:35:13;22.80;89.00
10316;DHT22;5203;48.976;8.306;2022-08-19T06:37:40;22.80;88.90
10316;DHT22;5203;48.976;8.306;2022-08-19T06:40:07;22.70;90.50
10316;DHT22;5203;48.976;8.306;2022-08-19T06:42:34;22.60;90.90
10316;DHT22;5203;48.976;8.306;2022-08-19T06:45:00;22.50;91.60
10316;DHT22;5203;48.976;8.306;2022-08-19T06:47:29;22.60;90.80
10316;DHT22;5203;48.976;8.306;2022-08-19T06:49:56;22.70;88.70
10316;DHT22;5203;48.976;8.306;2022-08-19T06:52:27;22.70;88.40
10316;DHT22;5203;48.976;8.306;2022-08-19T06:54:53;22.80;87.80
10316;DHT22;5203;48.976;8.306;2022-08-19T06:57:21;22.80;86.70
10316;DHT22;5203;48.976;8.306;2022-08-19T06:59:47;22.70;86.20
10316;DHT22;5203;48.976;8.306;2022-08-19T07:02:13;22.60;86.00
10316;DHT22;5203;48.976;8.306;2022-08-19T07:04:38;22.80;85.40
10316;DHT22;5203;48.976;8.306;2022-08-19T07:07:08;22.90;83.30
10316;DHT22;5203;48.976;8.306;2022-08-19T07:09:37;22.90;83.90
10316;DHT22;5203;48.976;8.306;2022-08-19T07:12:05;22.90;83.10
10316;DHT22;5203;48.976;8.306;2022-08-19T07:14:32;22.90;83.00
10316;DHT22;5203;48.976;8.306;2022-08-19T07:17:03;23.00;81.90
10316;DHT22;5203;48.976;8.306;2022-08-19T07:19:29;23.10;81.90
10316;DHT22;5203;48.976;8.306;2022-08-19T07:21:57;23.20;79.10
10316;DHT22;5203;48.976;8.306;2022-08-19T07:24:25;23.20;78.90
10316;DHT22;5203;48.976;8.306;2022-08-19T07:26:54;23.20;78.60
10316;DHT22;5203;48.976;8.306;2022-08-19T07:29:22;23.20;79.80
10316;DHT22;5203;48.976;8.306;2022-08-19T07:31:49;23.30;79.40
10316;DHT22;5203;48.976;8.306;2022-08-19T07:34:16;23.40;78.10
10316;DHT22;5203;48.976;8.306;2022-08-19T07:36:43;23.50;77.50
10316;DHT22;5203;48.976;8.306;2022-08-19T07:39:17;23.60;76.90
10316;DHT22;5203;48.976;8.306;2022-08-19T07:41:44;23.90;75.30
10316;DHT22;5203;48.976;8.306;2022-08-19T07:44:10;23.90;75.10
10316;DHT22;5203;48.976;8.306;2022-08-19T07:46:42;24.00;73.80
10316;DHT22;5203;48.976;8.306;2022-08-19T07:49:10;24.00;74.70
10316;DHT22;5203;48.976;8.306;2022-08-19T07:51:52;24.00;74.50
10316;DHT22;5203;48.976;8.306;2022-08-19T07:54:19;24.10;73.90
10316;DHT22;5203;48.976;8.306;2022-08-19T07:56:45;24.00;74.00
10316;DHT22;5203;48.976;8.306;2022-08-19T07:59:11;24.00;74.30
10316;DHT22;5203;48.976;8.306;2022-08-19T08:01:38;24.10;74.50
10316;DHT22;5203;48.976;8.306;2022-08-19T08:04:06;24.10;74.70
10316;DHT22;5203;48.976;8.306;2022-08-19T08:06:50;24.20;74.70
10316;DHT22;5203;48.976;8.306;2022-08-19T08:09:37;24.10;74.90
10316;DHT22;5203;48.976;8.306;2022-08-19T08:12:13;24.10;75.60
10316;DHT22;5203;48.976;8.306;2022-08-19T08:14:43;24.10;75.60
10316;DHT22;5203;48.976;8.306;2022-08-19T08:17:10;24.10;75.00
10316;DHT22;5203;48.976;8.306;2022-08-19T08:19:35;24.30;73.20
10316;DHT22;5203;48.976;8.306;2022-08-19T08:22:02;24.60;73.10
10316;DHT22;5203;48.976;8.306;2022-08-19T08:24:30;24.80;71.00
10316;DHT22;5203;48.976;8.306;2022-08-19T08:26:58;24.90;70.20
10316;DHT22;5203;48.976;8.306;2022-08-19T08:29:28;25.00;69.70
10316;DHT22;5203;48.976;8.306;2022-08-19T08:31:55;25.10;69.20
10316;DHT22;5203;48.976;8.306;2022-08-19T08:34:21;25.30;68.70
10316;DHT22;5203;48.976;8.306;2022-08-19T08:36:47;25.30;68.40
10316;DHT22;5203;48.976;8.306;2022-08-19T08:39:15;25.50;67.60
10316;DHT22;5203;48.976;8.306;2022-08-19T08:41:47;25.30;67.80
10316;DHT22;5203;48.976;8.306;2022-08-19T08:47:04;25.70;66.10
10316;DHT22;5203;48.976;8.306;2022-08-19T08:50:04;25.80;66.20
10316;DHT22;5203;48.976;8.306;2022-08-19T08:52:39;25.80;65.30
10316;DHT22;5203;48.976;8.306;2022-08-19T08:55:14;25.90;65.20
10316;DHT22;5203;48.976;8.306;2022-08-19T09:00:15;26.10;64.10
10316;DHT22;5203;48.976;8.306;2022-08-19T09:02:43;26.00;65.10
10316;DHT22;5203;48.976;8.306;2022-08-19T09:05:10;26.20;64.00
10316;DHT22;5203;48.976;8.306;2022-08-19T09:08:06;26.30;62.60
10316;DHT22;5203;48.976;8.306;2022-08-19T09:13:55;26.60;60.20
10316;DHT22;5203;48.976;8.306;2022-08-19T09:16:19;26.80;59.50
10316;DHT22;5203;48.976;8.306;2022-08-19T09:18:55;26.90;59.20
10316;DHT22;5203;48.976;8.306;2022-08-19T09:21:24;26.70;59.60
10316;DHT22;5203;48.976;8.306;2022-08-19T09:23:51;26.80;59.80
10316;DHT22;5203;48.976;8.306;2022-08-19T09:26:20;26.90;58.50
10316;DHT22;5203;48.976;8.306;2022-08-19T09:28:48;26.90;58.30
10316;DHT22;5203;48.976;8.306;2022-08-19T09:31:17;26.90;57.70
10316;DHT22;5203;48.976;8.306;2022-08-19T09:33:42;26.80;58.60
10316;DHT22;5203;48.976;8.306;2022-08-19T09:36:10;26.80;57.80
10316;DHT22;5203;48.976;8.306;2022-08-19T09:38:38;27.00;57.20
10316;DHT22;5203;48.976;8.306;2022-08-19T09:41:13;27.00;57.10
10316;DHT22;5203;48.976;8.306;2022-08-19T09:43:40;27.20;56.80
10316;DHT22;5203;48.976;8.306;2022-08-19T09:46:07;27.60;55.60
10316;DHT22;5203;48.976;8.306;2022-08-19T09:48:36;28.10;55.10
10316;DHT22;5203;48.976;8.306;2022-08-19T09:51:08;28.30;53.00
10316;DHT22;5203;48.976;8.306;2022-08-19T09:53:35;28.50;52.10
10316;DHT22;5203;48.976;8.306;2022-08-19T09:56:02;28.60;51.90
10316;DHT22;5203;48.976;8.306;2022-08-19T09:58:28;28.50;52.50
10316;DHT22;5203;48.976;8.306;2022-08-19T10:00:59;28.60;51.10
10316;DHT22;5203;48.976;8.306;2022-08-19T10:03:26;28.70;50.40
10316;DHT22;5203;48.976;8.306;2022-08-19T10:05:53;28.80;49.70
10316;DHT22;5203;48.976;8.306;2022-08-19T10:08:30;29.10;48.40
10316;DHT22;5203;48.976;8.306;2022-08-19T10:10:56;29.20;48.80
10316;DHT22;5203;48.976;8.306;2022-08-19T10:13:25;29.40;48.80
10316;DHT22;5203;48.976;8.306;2022-08-19T10:15:56;29.40;46.80
10316;DHT22;5203;48.976;8.306;2022-08-19T10:18:23;29.30;47.50
10316;DHT22;5203;48.976;8.306;2022-08-19T10:20:50;29.40;47.60
10316;DHT22;5203;48.976;8.306;2022-08-19T10:23:17;29.50;46.60
10316;DHT22;5203;48.976;8.306;2022-08-19T10:25:42;29.50;47.10
10316;DHT22;5203;48.976;8.306;2022-08-19T10:28:09;29.10;48.20
10316;DHT22;5203;48.976;8.306;2022-08-19T10:30:38;29.10;47.70
10316;DHT22;5203;48.976;8.306;2022-08-19T10:33:04;29.30;47.80
10316;DHT22;5203;48.976;8.306;2022-08-19T10:35:30;29.50;47.00
10316;DHT22;5203;48.976;8.306;2022-08-19T10:37:56;29.60;45.50
10316;DHT22;5203;48.976;8.306;2022-08-19T10:40:25;29.90;45.70
10316;DHT22;5203;48.976;8.306;2022-08-19T10:42:51;30.20;44.60
10316;DHT22;5203;48.976;8.306;2022-08-19T10:45:17;30.60;43.40
10316;DHT22;5203;48.976;8.306;2022-08-19T10:47:42;30.90;41.80
10316;DHT22;5203;48.976;8.306;2022-08-19T10:50:08;30.80;41.30
10316;DHT22;5203;48.976;8.306;2022-08-19T10:52:52;30.90;41.10
10316;DHT22;5203;48.976;8.306;2022-08-19T10:55:21;30.90;42.20
10316;DHT22;5203;48.976;8.306;2022-08-19T10:58:17;30.80;42.30
10316;DHT22;5203;48.976;8.306;2022-08-19T11:00:57;30.60;42.50
10316;DHT22;5203;48.976;8.306;2022-08-19T11:03:24;30.40;44.10
10316;DHT22;5203;48.976;8.306;2022-08-19T11:05:58;30.70;42.70
10316;DHT22;5203;48.976;8.306;2022-08-19T11:08:24;31.00;42.60
10316;DHT22;5203;48.976;8.306;2022-08-19T11:10:54;31.10;41.70
10316;DHT22;5203;48.976;8.306;2022-08-19T11:13:22;30.80;42.10
10316;DHT22;5203;48.976;8.306;2022-08-19T11:16:29;30.60;42.70
10316;DHT22;5203;48.976;8.306;2022-08-19T11:18:51;30.20;44.20
10316;DHT22;5203;48.976;8.306;2022-08-19T11:23:46;29.70;44.60
10316;DHT22;5203;48.976;8.306;2022-08-19T11:26:13;29.30;45.80
10316;DHT22;5203;48.976;8.306;2022-08-19T11:28:40;29.20;46.60
10316;DHT22;5203;48.976;8.306;2022-08-19T11:31:14;29.50;46.10
10316;DHT22;5203;48.976;8.306;2022-08-19T11:33:40;30.00;44.00
10316;DHT22;5203;48.976;8.306;2022-08-19T11:36:06;30.50;42.50
10316;DHT22;5203;48.976;8.306;2022-08-19T11:38:33;30.40;42.30
10316;DHT22;5203;48.976;8.306;2022-08-19T11:41:03;30.20;43.00
10316;DHT22;5203;48.976;8.306;2022-08-19T11:43:29;29.90;43.30
10316;DHT22;5203;48.976;8.306;2022-08-19T11:45:56;29.60;44.90
10316;DHT22;5203;48.976;8.306;2022-08-19T11:48:23;29.50;43.40
10316;DHT22;5203;48.976;8.306;2022-08-19T11:50:53;29.50;43.60
10316;DHT22;5203;48.976;8.306;2022-08-19T11:53:20;29.50;43.70
10316;DHT22;5203;48.976;8.306;2022-08-19T11:55:47;29.50;44.50
10316;DHT22;5203;48.976;8.306;2022-08-19T11:58:15;29.70;44.50
10316;DHT22;5203;48.976;8.306;2022-08-19T12:00:41;29.60;44.70
10316;DHT22;5203;48.976;8.306;2022-08-19T12:03:08;29.50;45.10
10316;DHT22;5203;48.976;8.306;2022-08-19T12:05:36;29.40;45.30
10316;DHT22;5203;48.976;8.306;2022-08-19T12:08:02;29.20;47.00
10316;DHT22;5203;48.976;8.306;2022-08-19T12:10:28;29.20;47.10
10316;DHT22;5203;48.976;8.306;2022-08-19T12:12:53;29.00;47.30
10316;DHT22;5203;48.976;8.306;2022-08-19T12:15:19;29.10;47.90
10316;DHT22;5203;48.976;8.306;2022-08-19T12:17:45;28.90;46.30
10316;DHT22;5203;48.976;8.306;2022-08-19T12:20:12;28.80;46.80
10316;DHT22;5203;48.976;8.306;2022-08-19T12:22:39;28.60;48.30
10316;DHT22;5203;48.976;8.306;2022-08-19T12:25:08;28.40;48.30
10316;DHT22;5203;48.976;8.306;2022-08-19T12:27:34;28.60;47.40
10316;DHT22;5203;48.976;8.306;2022-08-19T12:30:01;28.90;46.70
10316;DHT22;5203;48.976;8.306;2022-08-19T12:32:27;29.60;44.40
10316;DHT22;5203;48.976;8.306;2022-08-19T12:34:53;30.10;43.10
10316;DHT22;5203;48.976;8.306;2022-08-19T12:37:20;30.80;39.80
10316;DHT22;5203;48.976;8.306;2022-08-19T12:39:45;31.20;39.10
10316;DHT22;5203;48.976;8.306;2022-08-19T12:42:13;31.60;38.70
10316;DHT22;5203;48.976;8.306;2022-08-19T12:44:41;32.10;37.60
10316;DHT22;5203;48.976;8.306;2022-08-19T12:47:08;31.80;37.80
10316;DHT22;5203;48.976;8.306;2022-08-19T12:49:35;31.70;37.60
10316;DHT22;5203;48.976;8.306;2022-08-19T12:52:04;31.80;37.10
10316;DHT22;5203;48.976;8.306;2022-08-19T12:54:30;31.60;38.80
10316;DHT22;5203;48.976;8.306;2022-08-19T12:56:57;31.30;38.10
10316;DHT22;5203;48.976;8.306;2022-08-19T12:59:22;31.50;36.50
10316;DHT22;5203;48.976;8.306;2022-08-19T13:01:48;31.80;36.20
10316;DHT22;5203;48.976;8.306;2022-08-19T13:04:14;31.80;33.30
10316;DHT22;5203;48.976;8.306;2022-08-19T13:06:40;32.30;33.50
10316;DHT22;5203;48.976;8.306;2022-08-19T13:09:07;33.00;32.50
10316;DHT22;5203;48.976;8.306;2022-08-19T13:11:33;32.90;33.00
10316;DHT22;5203;48.976;8.306;2022-08-19T13:14:01;32.50;33.20
10316;DHT22;5203;48.976;8.306;2022-08-19T13:16:27;32.00;35.60
10316;DHT22;5203;48.976;8.306;2022-08-19T13:18:54;31.50;35.50
10316;DHT22;5203;48.976;8.306;2022-08-19T13:21:23;31.10;33.40
10316;DHT22;5203;48.976;8.306;2022-08-19T13:23:49;31.30;33.30
10316;DHT22;5203;48.976;8.306;2022-08-19T13:26:15;31.40;33.90
10316;DHT22;5203;48.976;8.306;2022-08-19T13:28:41;31.70;32.70
10316;DHT22;5203;48.976;8.306;2022-08-19T13:31:28;31.90;32.10
10316;DHT22;5203;48.976;8.306;2022-08-19T13:34:14;32.30;31.70
10316;DHT22;5203;48.976;8.306;2022-08-19T13:36:40;32.70;30.60
10316;DHT22;5203;48.976;8.306;2022-08-19T13:39:07;32.80;29.90
10316;DHT22;5203;48.976;8.306;2022-08-19T13:41:34;32.90;30.00
10316;DHT22;5203;48.976;8.306;2022-08-19T13:44:00;33.00;30.10
10316;DHT22;5203;48.976;8.306;2022-08-19T13:46:27;33.50;29.50
10316;DHT22;5203;48.976;8.306;2022-08-19T13:48:54;33.60;30.30
10316;DHT22;5203;48.976;8.306;2022-08-19T13:51:20;33.30;29.60
10316;DHT22;5203;48.976;8.306;2022-08-19T13:53:46;32.90;29.50
10316;DHT22;5203;48.976;8.306;2022-08-19T13:56:15;32.70;30.00
10316;DHT22;5203;48.976;8.306;2022-08-19T13:58:41;32.50;30.60
10316;DHT22;5203;48.976;8.306;2022-08-19T14:01:07;32.40;30.40
10316;DHT22;5203;48.976;8.306;2022-08-19T14:03:34;32.10;32.20
10316;DHT22;5203;48.976;8.306;2022-08-19T14:06:00;31.80;31.30
10316;DHT22;5203;48.976;8.306;2022-08-19T14:08:26;31.80;31.80
10316;DHT22;5203;48.976;8.306;2022-08-19T14:10:54;31.80;31.60
10316;DHT22;5203;48.976;8.306;2022-08-19T14:13:22;31.90;31.40
10316;DHT22;5203;48.976;8.306;2022-08-19T14:15:48;32.00;31.80
10316;DHT22;5203;48.976;8.306;2022-08-19T14:18:16;32.10;31.00
10316;DHT22;5203;48.976;8.306;2022-08-19T14:20:42;32.20;30.90
10316;DHT22;5203;48.976;8.306;2022-08-19T14:23:08;32.30;31.20
10316;DHT22;5203;48.976;8.306;2022-08-19T14:25:34;32.30;30.90
10316;DHT22;5203;48.976;8.306;2022-08-19T14:28:00;32.40;31.10
10316;DHT22;5203;48.976;8.306;2022-08-19T14:30:31;32.30;30.80
10316;DHT22;5203;48.976;8.306;2022-08-19T14:32:59;32.10;30.60
10316;DHT22;5203;48.976;8.306;2022-08-19T14:35:27;31.80;32.10
10316;DHT22;5203;48.976;8.306;2022-08-19T14:37:53;31.80;33.20
10316;DHT22;5203;48.976;8.306;2022-08-19T14:40:24;31.70;33.50
10316;DHT22;5203;48.976;8.306;2022-08-19T14:42:59;31.40;33.90
10316;DHT22;5203;48.976;8.306;2022-08-19T14:45:28;30.90;34.50
10316;DHT22;5203;48.976;8.306;2022-08-19T14:47:54;30.50;36.00
10316;DHT22;5203;48.976;8.306;2022-08-19T14:50:21;30.40;36.80
10316;DHT22;5203;48.976;8.306;2022-08-19T14:52:47;30.20;36.70
10316;DHT22;5203;48.976;8.306;2022-08-19T14:55:14;30.10;37.90
10316;DHT22;5203;48.976;8.306;2022-08-19T14:57:42;29.90;37.10
10316;DHT22;5203;48.976;8.306;2022-08-19T15:00:09;29.60;37.40
10316;DHT22;5203;48.976;8.306;2022-08-19T15:02:39;29.50;37.70
10316;DHT22;5203;48.976;8.306;2022-08-19T15:05:05;29.60;37.50
10316;DHT22;5203;48.976;8.306;2022-08-19T15:07:31;29.70;37.80
10316;DHT22;5203;48.976;8.306;2022-08-19T15:09:57;30.00;37.80
10316;DHT22;5203;48.976;8.306;2022-08-19T15:12:24;30.00;37.30
10316;DHT22;5203;48.976;8.306;2022-08-19T15:14:50;30.30;36.70
10316;DHT22;5203;48.976;8.306;2022-08-19T15:17:16;30.30;38.00
10316;DHT22;5203;48.976;8.306;2022-08-19T15:19:43;30.20;37.90
10316;DHT22;5203;48.976;8.306;2022-08-19T15:22:08;30.20;37.10
10316;DHT22;5203;48.976;8.306;2022-08-19T15:24:35;30.10;36.10
10316;DHT22;5203;48.976;8.306;2022-08-19T15:27:01;30.00;36.50
10316;DHT22;5203;48.976;8.306;2022-08-19T15:29:28;29.90;35.40
10316;DHT22;5203;48.976;8.306;2022-08-19T15:31:54;29.90;35.00
10316;DHT22;5203;48.976;8.306;2022-08-19T15:34:23;29.80;34.50
10316;DHT22;5203;48.976;8.306;2022-08-19T15:36:51;29.90;34.10
10316;DHT22;5203;48.976;8.306;2022-08-19T15:39:17;29.90;34.20
10316;DHT22;5203;48.976;8.306;2022-08-19T15:41:44;29.90;34.00
10316;DHT22;5203;48.976;8.306;2022-08-19T15:44:14;29.90;34.40
10316;DHT22;5203;48.976;8.306;2022-08-19T15:46:44;30.00;34.60
10316;DHT22;5203;48.976;8.306;2022-08-19T15:49:12;30.10;34.40
10316;DHT22;5203;48.976;8.306;2022-08-19T15:51:40;30.10;34.50
10316;DHT22;5203;48.976;8.306;2022-08-19T15:54:09;30.20;34.90
10316;DHT22;5203;48.976;8.306;2022-08-19T15:56:36;30.30;34.60
10316;DHT22;5203;48.976;8.306;2022-08-19T15:59:32;30.50;34.60
10316;DHT22;5203;48.976;8.306;2022-08-19T16:02:18;30.30;35.00
10316;DHT22;5203;48.976;8.306;2022-08-19T16:05:05;30.20;34.80